createdAt,value
2018-07-25T00:00:13.128Z,90.30
2018-07-25T00:02:41.319Z,90.60
2018-07-25T00:05:09.558Z,91.10
2018-07-25T00:07:37.766Z,91.00
2018-07-25T00:10:07.941Z,90.90
2018-07-25T00:12:36.147Z,91.20
2018-07-25T00:15:04.579Z,91.90
2018-07-25T00:17:32.800Z,92.40
2018-07-25T00:20:01.074Z,93.00
2018-07-25T00:22:29.492Z,91.90
2018-07-25T00:24:57.707Z,91.50
2018-07-25T00:27:25.913Z,92.20
2018-07-25T00:29:54.129Z,93.00
2018-07-25T00:32:22.348Z,92.90
2018-07-25T00:34:50.571Z,92.00
2018-07-25T00:37:18.766Z,92.20
2018-07-25T00:39:46.972Z,92.50
2018-07-25T00:42:15.189Z,92.20
2018-07-25T00:44:43.401Z,92.50
2018-07-25T00:47:11.609Z,91.80
2018-07-25T00:49:39.827Z,92.60
2018-07-25T00:52:08.047Z,94.00
2018-07-25T00:54:36.252Z,94.00
2018-07-25T00:57:04.482Z,93.50
2018-07-25T00:59:32.699Z,92.90
2018-07-25T01:02:00.920Z,92.30
2018-07-25T01:04:29.126Z,92.40
2018-07-25T01:06:57.332Z,93.00
2018-07-25T01:09:25.545Z,92.60
2018-07-25T01:11:53.769Z,92.20
2018-07-25T01:14:21.977Z,91.80
2018-07-25T01:16:50.208Z,92.20
2018-07-25T01:19:18.435Z,91.80
2018-07-25T01:21:46.668Z,92.70
2018-07-25T01:24:14.883Z,93.00
2018-07-25T01:26:43.100Z,93.20
2018-07-25T01:29:11.311Z,93.50
2018-07-25T01:31:39.534Z,93.00
2018-07-25T01:34:07.762Z,93.20
2018-07-25T01:36:35.982Z,92.10
2018-07-25T01:39:05.832Z,91.90
2018-07-25T01:41:34.049Z,92.10
2018-07-25T01:44:02.266Z,91.70
2018-07-25T01:46:30.489Z,91.70
2018-07-25T01:48:58.701Z,91.80
2018-07-25T01:51:26.932Z,92.10
2018-07-25T01:53:55.154Z,92.00
2018-07-25T01:56:23.369Z,92.50
2018-07-25T01:58:51.581Z,93.50
2018-07-25T02:01:19.888Z,93.40
2018-07-25T02:03:48.051Z,93.10
2018-07-25T02:06:16.265Z,93.90
2018-07-25T02:08:44.480Z,94.00
2018-07-25T02:11:12.684Z,92.10
2018-07-25T02:13:40.894Z,91.50
2018-07-25T02:16:09.109Z,91.30
2018-07-25T02:18:37.340Z,91.50
2018-07-25T02:21:05.662Z,91.50
2018-07-25T02:23:33.887Z,91.50
2018-07-25T02:26:02.089Z,91.50
2018-07-25T02:28:30.302Z,92.60
2018-07-25T02:30:58.498Z,92.20
2018-07-25T02:33:32.147Z,92.50
2018-07-25T02:36:00.346Z,93.10
2018-07-25T02:38:28.544Z,92.70
2018-07-25T02:40:56.737Z,93.60
2018-07-25T02:43:24.949Z,94.00
2018-07-25T02:45:53.157Z,93.10
2018-07-25T02:48:21.361Z,92.10
2018-07-25T02:50:49.562Z,92.20
2018-07-25T02:53:17.783Z,92.10
2018-07-25T02:55:45.980Z,92.30
2018-07-25T02:58:14.187Z,92.30
2018-07-25T03:00:42.431Z,92.80
2018-07-25T03:03:10.785Z,93.60
2018-07-25T03:05:39.072Z,93.80
2018-07-25T03:08:07.666Z,94.10
2018-07-25T03:10:35.869Z,93.50
2018-07-25T03:13:04.097Z,93.50
2018-07-25T03:15:32.310Z,93.40
2018-07-25T03:20:35.028Z,92.70
2018-07-25T03:23:03.263Z,92.80
2018-07-25T03:25:31.475Z,93.30
2018-07-25T03:27:59.696Z,93.50
2018-07-25T03:30:27.904Z,94.00
2018-07-25T03:32:56.136Z,94.20
2018-07-25T03:35:24.344Z,94.90
2018-07-25T03:37:52.547Z,95.10
2018-07-25T03:40:20.765Z,95.00
2018-07-25T03:42:48.973Z,95.10
2018-07-25T03:45:17.182Z,95.30
2018-07-25T03:47:45.398Z,94.00
2018-07-25T03:50:13.610Z,94.50
2018-07-25T03:52:41.819Z,94.00
2018-07-25T03:55:10.038Z,93.90
2018-07-25T03:57:38.250Z,93.80
2018-07-25T04:00:06.482Z,94.00
2018-07-25T04:02:34.697Z,94.20
2018-07-25T04:05:02.916Z,93.70
2018-07-25T04:07:31.119Z,93.40
2018-07-25T04:09:59.328Z,94.80
2018-07-25T04:12:27.534Z,95.10
2018-07-25T04:14:55.751Z,95.40
2018-07-25T04:17:23.983Z,96.00
2018-07-25T04:19:52.199Z,95.60
2018-07-25T04:22:20.402Z,95.90
2018-07-25T04:24:48.704Z,95.70
2018-07-25T04:27:16.850Z,96.70
2018-07-25T04:29:45.069Z,96.30
2018-07-25T04:32:13.282Z,96.40
2018-07-25T04:34:41.713Z,96.60
2018-07-25T04:37:09.884Z,96.50
2018-07-25T04:39:38.090Z,97.00
2018-07-25T04:42:06.323Z,96.10
2018-07-25T04:44:34.538Z,96.70
2018-07-25T04:47:02.759Z,96.70
2018-07-25T04:49:30.986Z,97.10
2018-07-25T04:51:59.278Z,97.70
2018-07-25T04:54:27.481Z,98.90
2018-07-25T04:56:55.720Z,98.80
2018-07-25T04:59:23.966Z,99.00
2018-07-25T05:01:52.208Z,99.30
2018-07-25T05:04:20.425Z,99.70
2018-07-25T05:06:48.641Z,99.90
2018-07-25T05:09:16.889Z,99.70
2018-07-25T05:11:45.077Z,99.50
2018-07-25T05:14:13.270Z,98.00
2018-07-25T05:16:41.489Z,97.00
2018-07-25T05:19:09.704Z,96.60
2018-07-25T05:21:37.942Z,97.40
2018-07-25T05:24:06.149Z,98.80
2018-07-25T05:26:34.373Z,98.60
2018-07-25T05:29:02.639Z,97.20
2018-07-25T05:31:30.856Z,96.30
2018-07-25T05:33:59.056Z,96.60
2018-07-25T05:36:27.276Z,96.90
2018-07-25T05:38:55.469Z,98.30
2018-07-25T05:41:23.680Z,98.20
2018-07-25T05:43:51.964Z,98.40
2018-07-25T05:46:20.362Z,97.80
2018-07-25T05:48:48.615Z,95.90
2018-07-25T05:51:16.834Z,95.00
2018-07-25T05:53:46.209Z,96.40
2018-07-25T05:56:14.462Z,95.30
2018-07-25T05:58:42.713Z,95.90
2018-07-25T06:01:11.069Z,97.20
2018-07-25T06:03:42.836Z,96.90
2018-07-25T06:06:11.309Z,96.50
2018-07-25T06:08:39.498Z,96.40
2018-07-25T06:11:07.987Z,96.60
2018-07-25T06:13:36.997Z,96.90
2018-07-25T06:16:05.491Z,97.00
2018-07-25T06:18:33.721Z,96.90
2018-07-25T06:21:01.973Z,97.10
2018-07-25T06:23:30.206Z,97.40
2018-07-25T06:25:58.563Z,97.70
2018-07-25T06:28:26.753Z,97.50
2018-07-25T06:30:55.000Z,97.00
2018-07-25T06:33:23.251Z,97.00
2018-07-25T06:35:51.469Z,96.90
2018-07-25T06:38:19.724Z,97.90
2018-07-25T06:40:47.920Z,97.90
2018-07-25T06:43:16.142Z,97.10
2018-07-25T06:45:44.354Z,96.60
2018-07-25T06:48:12.593Z,96.80
2018-07-25T06:50:40.806Z,97.00
2018-07-25T06:53:09.309Z,96.60
2018-07-25T06:55:37.738Z,96.00
2018-07-25T07:00:43.229Z,94.60
2018-07-25T07:03:11.437Z,94.00
2018-07-25T07:05:39.646Z,93.00
2018-07-25T07:08:07.898Z,93.10
2018-07-25T07:10:36.111Z,91.70
2018-07-25T07:13:04.322Z,91.30
2018-07-25T07:15:32.528Z,90.80
2018-07-25T07:18:00.730Z,88.90
2018-07-25T07:20:28.954Z,90.90
2018-07-25T07:22:57.178Z,89.10
2018-07-25T07:25:25.387Z,89.20
2018-07-25T07:27:53.878Z,87.80
2018-07-25T07:30:22.188Z,87.30
2018-07-25T07:32:50.408Z,84.40
2018-07-25T07:35:18.627Z,83.60
2018-07-25T07:37:46.860Z,80.50
2018-07-25T07:40:15.075Z,82.40
2018-07-25T07:42:43.287Z,82.50
2018-07-25T07:45:11.490Z,82.40
2018-07-25T07:47:39.735Z,82.10
2018-07-25T07:50:07.957Z,80.70
2018-07-25T07:52:36.181Z,80.90
2018-07-25T07:55:04.690Z,83.40
2018-07-25T07:57:32.929Z,82.00
2018-07-25T08:00:01.206Z,78.80
2018-07-25T08:02:29.434Z,78.80
2018-07-25T08:04:57.709Z,77.20
2018-07-25T08:07:25.883Z,77.30
2018-07-25T08:09:54.104Z,76.00
2018-07-25T08:12:22.304Z,74.80
2018-07-25T08:14:50.537Z,72.60
2018-07-25T08:17:18.754Z,71.90
2018-07-25T08:19:46.990Z,70.20
2018-07-25T08:22:15.244Z,69.80
2018-07-25T08:24:43.470Z,68.60
2018-07-25T08:27:11.672Z,67.50
2018-07-25T08:29:39.885Z,66.10
2018-07-25T08:32:08.126Z,66.00
2018-07-25T08:34:36.414Z,65.40
2018-07-25T08:37:04.573Z,67.20
2018-07-25T08:39:39.218Z,64.90
2018-07-25T08:42:07.453Z,63.50
2018-07-25T08:44:35.681Z,63.80
2018-07-25T08:47:03.881Z,63.00
2018-07-25T08:49:32.121Z,62.90
2018-07-25T08:52:00.341Z,59.90
2018-07-25T08:54:28.575Z,61.00
2018-07-25T08:56:56.778Z,60.30
2018-07-25T08:59:24.991Z,59.40
2018-07-25T09:01:53.277Z,60.30
2018-07-25T09:04:21.422Z,61.10
2018-07-25T09:06:49.626Z,56.60
2018-07-25T09:09:17.831Z,59.10
2018-07-25T09:11:46.047Z,58.80
2018-07-25T09:14:14.257Z,58.90
2018-07-25T09:16:42.526Z,58.40
2018-07-25T09:19:10.704Z,58.60
2018-07-25T09:21:38.922Z,57.50
2018-07-25T09:24:07.130Z,59.40
2018-07-25T09:26:41.609Z,58.80
2018-07-25T09:29:09.842Z,58.50
2018-07-25T09:31:38.052Z,58.60
2018-07-25T09:34:06.328Z,56.90
2018-07-25T09:36:34.525Z,56.80
2018-07-25T09:39:02.755Z,57.90
2018-07-25T09:41:30.986Z,56.50
2018-07-25T09:43:59.220Z,55.20
2018-07-25T09:46:27.455Z,55.40
2018-07-25T09:48:55.661Z,57.70
2018-07-25T09:51:23.896Z,57.00
2018-07-25T09:53:52.103Z,55.50
2018-07-25T09:56:20.325Z,56.00
2018-07-25T09:58:48.555Z,54.20
2018-07-25T10:01:16.758Z,54.20
2018-07-25T10:03:44.987Z,55.40
2018-07-25T10:06:13.216Z,56.10
2018-07-25T10:08:41.421Z,53.40
2018-07-25T10:11:09.655Z,56.20
2018-07-25T10:13:37.845Z,54.80
2018-07-25T10:16:06.070Z,53.40
2018-07-25T10:18:34.284Z,52.20
2018-07-25T10:21:02.509Z,54.00
2018-07-25T10:23:30.833Z,52.60
2018-07-25T10:25:58.997Z,54.30
2018-07-25T10:28:27.192Z,51.30
2018-07-25T10:30:55.418Z,50.40
2018-07-25T10:33:23.622Z,51.10
2018-07-25T10:35:51.841Z,50.60
2018-07-25T10:38:20.046Z,46.20
2018-07-25T10:40:48.253Z,47.30
2018-07-25T10:43:17.385Z,44.10
2018-07-25T10:45:45.649Z,45.00
2018-07-25T10:48:13.847Z,44.10
2018-07-25T10:50:42.065Z,42.70
2018-07-25T10:53:10.274Z,45.60
2018-07-25T10:55:38.513Z,42.70
2018-07-25T10:58:06.734Z,41.80
2018-07-25T11:00:34.994Z,42.70
2018-07-25T11:03:03.197Z,40.40
2018-07-25T11:05:31.416Z,41.30
2018-07-25T11:07:59.633Z,38.60
2018-07-25T11:10:27.852Z,40.40
2018-07-25T11:12:56.067Z,41.80
2018-07-25T11:15:24.470Z,40.00
2018-07-25T11:17:53.056Z,40.60
2018-07-25T11:20:21.429Z,38.60
2018-07-25T11:22:49.656Z,39.20
2018-07-25T11:25:17.880Z,41.30
2018-07-25T11:27:46.109Z,39.80
2018-07-25T11:30:14.312Z,39.60
2018-07-25T11:32:43.419Z,40.70
2018-07-25T11:35:11.602Z,40.70
2018-07-25T11:37:39.957Z,38.60
2018-07-25T11:40:08.509Z,39.80
2018-07-25T11:42:37.058Z,44.20
2018-07-25T11:45:05.360Z,39.20
2018-07-25T11:47:33.586Z,40.00
2018-07-25T11:50:01.845Z,41.40
2018-07-25T11:52:30.017Z,44.40
2018-07-25T11:54:58.360Z,41.20
2018-07-25T11:57:26.606Z,40.90
2018-07-25T11:59:54.822Z,40.20
2018-07-25T12:02:23.186Z,39.40
2018-07-25T12:04:51.398Z,42.50
2018-07-25T12:07:19.625Z,40.80
2018-07-25T12:09:47.850Z,41.50
2018-07-25T12:12:16.091Z,39.00
2018-07-25T12:14:44.333Z,40.00
2018-07-25T12:17:12.566Z,41.10
2018-07-25T12:19:40.822Z,41.50
2018-07-25T12:22:09.058Z,42.00
2018-07-25T12:24:37.301Z,43.10
2018-07-25T12:27:05.518Z,42.50
2018-07-25T12:29:33.746Z,42.50
2018-07-25T12:32:02.006Z,42.50
2018-07-25T12:34:30.226Z,42.70
2018-07-25T12:36:58.462Z,43.00
2018-07-25T12:39:26.709Z,44.10
2018-07-25T12:41:54.926Z,45.80
2018-07-25T12:44:23.164Z,44.60
2018-07-25T12:46:51.388Z,44.60
2018-07-25T12:49:19.638Z,45.00
2018-07-25T12:51:47.875Z,43.90
2018-07-25T12:54:16.239Z,41.70
2018-07-25T12:56:44.374Z,40.40
2018-07-25T12:59:12.605Z,41.50
2018-07-25T13:01:40.874Z,42.80
2018-07-25T13:04:09.125Z,46.40
2018-07-25T13:06:37.338Z,45.50
2018-07-25T13:09:07.958Z,47.40
2018-07-25T13:11:36.895Z,48.30
2018-07-25T13:14:05.141Z,49.50
2018-07-25T13:16:33.406Z,51.50
2018-07-25T13:19:01.646Z,53.50
2018-07-25T13:21:29.868Z,53.20
2018-07-25T13:23:58.126Z,51.70
2018-07-25T13:26:26.341Z,51.80
2018-07-25T13:28:54.651Z,52.00
2018-07-25T13:31:22.813Z,50.70
2018-07-25T13:33:51.087Z,49.50
2018-07-25T13:36:19.315Z,48.20
2018-07-25T13:38:47.562Z,48.10
2018-07-25T13:41:15.815Z,47.70
2018-07-25T13:43:44.059Z,48.00
2018-07-25T13:46:12.375Z,47.90
2018-07-25T13:48:40.534Z,49.70
2018-07-25T13:51:08.775Z,47.80
2018-07-25T13:53:37.007Z,49.90
2018-07-25T13:56:05.603Z,51.70
2018-07-25T13:58:33.846Z,52.30
2018-07-25T14:01:02.069Z,50.10
2018-07-25T14:03:30.699Z,48.40
2018-07-25T14:05:58.962Z,49.30
2018-07-25T14:08:27.169Z,48.00
2018-07-25T14:10:55.529Z,47.60
2018-07-25T14:13:23.746Z,47.00
2018-07-25T14:15:52.026Z,45.70
2018-07-25T14:18:20.248Z,45.70
2018-07-25T14:20:48.744Z,47.50
2018-07-25T14:23:17.182Z,48.50
2018-07-25T14:25:45.467Z,47.70
2018-07-25T14:28:13.960Z,48.00
2018-07-25T14:30:42.263Z,48.00
2018-07-25T14:33:10.420Z,48.40
2018-07-25T14:35:38.659Z,48.80
2018-07-25T14:38:07.157Z,49.30
2018-07-25T14:40:35.383Z,49.10
2018-07-25T14:43:03.772Z,50.50
2018-07-25T14:45:32.008Z,51.00
2018-07-25T14:48:00.231Z,50.50
2018-07-25T14:50:28.463Z,50.80
2018-07-25T14:52:56.695Z,50.30
2018-07-25T14:55:24.972Z,50.50
2018-07-25T14:57:53.216Z,50.80
2018-07-25T15:00:21.463Z,50.30
2018-07-25T15:02:50.542Z,51.00
2018-07-25T15:05:19.243Z,50.70
2018-07-25T15:07:48.203Z,50.80
2018-07-25T15:10:16.419Z,51.30
2018-07-25T15:12:49.934Z,52.00
2018-07-25T15:15:18.183Z,51.70
2018-07-25T15:17:46.421Z,51.80
2018-07-25T15:20:14.610Z,49.30
2018-07-25T15:22:42.856Z,51.00
2018-07-25T15:25:11.067Z,50.90
2018-07-25T15:27:39.282Z,52.30
2018-07-25T15:30:08.673Z,53.00
2018-07-25T15:32:36.997Z,52.50
2018-07-25T15:35:05.419Z,52.70
2018-07-25T15:37:33.654Z,52.90
2018-07-25T15:40:01.950Z,51.90
2018-07-25T15:42:30.204Z,51.50
2018-07-25T15:44:58.733Z,51.80
2018-07-25T15:47:27.006Z,52.70
2018-07-25T15:49:55.199Z,52.30
2018-07-25T15:52:23.520Z,52.50
2018-07-25T15:54:51.738Z,49.10
2018-07-25T15:57:19.949Z,50.30
2018-07-25T15:59:48.306Z,50.70
2018-07-25T16:02:16.543Z,50.50
2018-07-25T16:04:44.761Z,50.50
2018-07-25T16:07:19.495Z,49.80
2018-07-25T16:09:47.751Z,50.10
2018-07-25T16:12:15.933Z,50.80
2018-07-25T16:14:44.160Z,50.80
2018-07-25T16:17:12.506Z,50.60
2018-07-25T16:19:40.633Z,50.60
2018-07-25T16:22:08.849Z,50.40
2018-07-25T16:24:37.082Z,50.40
2018-07-25T16:27:05.414Z,51.20
2018-07-25T16:29:33.638Z,50.60
2018-07-25T16:32:01.884Z,50.20
2018-07-25T16:34:30.112Z,50.40
2018-07-25T16:36:58.330Z,47.40
2018-07-25T16:39:26.562Z,46.00
2018-07-25T16:41:54.797Z,46.10
2018-07-25T16:44:23.071Z,45.80
2018-07-25T16:46:51.316Z,44.80
2018-07-25T16:49:19.525Z,44.50
2018-07-25T16:51:47.746Z,45.40
2018-07-25T16:54:15.962Z,45.90
2018-07-25T16:56:44.192Z,47.40
2018-07-25T16:59:12.406Z,49.80
2018-07-25T17:01:40.632Z,50.40
2018-07-25T17:04:08.893Z,49.70
2018-07-25T17:06:37.391Z,52.80
2018-07-25T17:09:07.817Z,60.40
2018-07-25T17:11:36.030Z,62.50
2018-07-25T17:14:04.317Z,61.80
2018-07-25T17:16:32.548Z,62.50
2018-07-25T17:19:00.779Z,62.20
2018-07-25T17:21:29.005Z,64.80
2018-07-25T17:23:57.274Z,65.20
2018-07-25T17:26:26.339Z,67.40
2018-07-25T17:28:54.593Z,70.10
2018-07-25T17:31:22.859Z,79.10
2018-07-25T17:33:51.106Z,88.00
2018-07-25T17:36:20.071Z,90.30
2018-07-25T17:38:48.364Z,92.30
2018-07-25T17:41:16.627Z,93.60
2018-07-25T17:43:44.895Z,92.50
2018-07-25T17:46:13.112Z,93.90
2018-07-25T17:48:42.830Z,94.20
2018-07-25T17:51:11.599Z,90.40
2018-07-25T17:53:40.316Z,92.00
2018-07-25T17:56:08.728Z,91.70
2018-07-25T17:58:37.142Z,93.50
2018-07-25T18:01:05.616Z,93.30
2018-07-25T18:03:33.900Z,92.40
2018-07-25T18:06:02.127Z,91.90
2018-07-25T18:08:30.419Z,90.70
2018-07-25T18:10:59.450Z,90.60
2018-07-25T18:13:33.326Z,88.80
2018-07-25T18:16:01.553Z,90.60
2018-07-25T18:18:29.775Z,90.90
2018-07-25T18:20:58.405Z,89.60
2018-07-25T18:23:26.626Z,88.20
2018-07-25T18:25:54.853Z,90.00
2018-07-25T18:28:23.250Z,90.30
2018-07-25T18:30:51.470Z,90.80
2018-07-25T18:33:19.747Z,91.00
2018-07-25T18:35:48.024Z,90.10
2018-07-25T18:38:16.210Z,90.30
2018-07-25T18:40:44.435Z,90.40
2018-07-25T18:43:12.665Z,90.20
2018-07-25T18:45:40.891Z,90.30
2018-07-25T18:48:09.151Z,89.60
2018-07-25T18:50:37.382Z,88.70
2018-07-25T18:53:06.015Z,89.20
2018-07-25T18:55:34.249Z,90.20
2018-07-25T18:58:02.478Z,88.80
2018-07-25T19:00:30.703Z,89.00
2018-07-25T19:02:58.907Z,90.30
2018-07-25T19:05:30.141Z,90.80
2018-07-25T19:08:00.448Z,90.60
2018-07-25T19:10:28.747Z,88.30
2018-07-25T19:12:57.009Z,89.50
2018-07-25T19:15:32.349Z,89.10
2018-07-25T19:18:01.128Z,89.20
2018-07-25T19:20:29.588Z,89.80
2018-07-25T19:22:57.806Z,90.50
2018-07-25T19:25:26.020Z,90.10
2018-07-25T19:27:54.228Z,90.60
2018-07-25T19:30:22.470Z,90.20
2018-07-25T19:32:51.176Z,89.70
2018-07-25T19:35:19.451Z,90.30
2018-07-25T19:37:47.667Z,89.80
2018-07-25T19:40:15.894Z,90.50
2018-07-25T19:42:44.087Z,90.20
2018-07-25T19:45:12.295Z,90.00
2018-07-25T19:47:40.532Z,90.70
2018-07-25T19:50:08.757Z,90.60
2018-07-25T19:52:36.966Z,91.00
2018-07-25T19:55:05.229Z,91.00
2018-07-25T19:57:33.444Z,91.20
2018-07-25T20:00:01.658Z,91.30
2018-07-25T20:02:29.875Z,90.00
2018-07-25T20:04:58.095Z,90.10
2018-07-25T20:07:26.354Z,90.30
2018-07-25T20:09:54.539Z,90.40
2018-07-25T20:12:22.750Z,91.40
2018-07-25T20:14:56.218Z,91.30
2018-07-25T20:17:24.427Z,90.70
2018-07-25T20:19:52.858Z,90.30
2018-07-25T20:22:21.070Z,90.70
2018-07-25T20:24:49.339Z,90.40
2018-07-25T20:27:17.599Z,90.30
2018-07-25T20:29:45.826Z,90.30
2018-07-25T20:32:14.069Z,89.80
2018-07-25T20:34:42.344Z,90.00
2018-07-25T20:37:10.539Z,91.50
2018-07-25T20:39:38.747Z,91.40
2018-07-25T20:42:07.020Z,90.30
2018-07-25T20:44:35.211Z,91.00
2018-07-25T20:47:03.455Z,91.90
2018-07-25T20:49:31.660Z,91.90
2018-07-25T20:51:59.907Z,92.10
2018-07-25T20:54:28.120Z,91.60
2018-07-25T20:56:56.362Z,92.40
2018-07-25T20:59:24.579Z,92.40
2018-07-25T21:01:52.846Z,91.80
2018-07-25T21:04:21.055Z,91.50
2018-07-25T21:06:49.282Z,92.50
2018-07-25T21:09:17.516Z,93.00
2018-07-25T21:11:45.738Z,93.20
2018-07-25T21:14:13.961Z,93.40
2018-07-25T21:16:42.193Z,92.70
2018-07-25T21:19:10.403Z,92.50
2018-07-25T21:21:38.668Z,93.30
2018-07-25T21:24:06.843Z,92.60
2018-07-25T21:26:35.062Z,92.50
2018-07-25T21:29:03.261Z,91.70
2018-07-25T21:31:31.492Z,91.90
2018-07-25T21:34:00.699Z,92.20
2018-07-25T21:36:28.934Z,92.00
2018-07-25T21:38:57.154Z,92.20
2018-07-25T21:41:25.383Z,93.20
2018-07-25T21:43:53.590Z,93.20
2018-07-25T21:46:21.804Z,93.60
2018-07-25T21:48:50.034Z,94.30
2018-07-25T21:51:18.265Z,92.40
2018-07-25T21:53:46.502Z,92.30
2018-07-25T21:56:14.730Z,92.20
2018-07-25T21:58:42.946Z,92.50
2018-07-25T22:01:17.432Z,93.50
2018-07-25T22:03:45.865Z,93.50
2018-07-25T22:06:14.678Z,94.40
2018-07-25T22:08:42.887Z,93.40
2018-07-25T22:11:11.117Z,94.00
2018-07-25T22:13:43.559Z,92.10
2018-07-25T22:16:11.811Z,91.70
2018-07-25T22:18:40.067Z,92.30
2018-07-25T22:21:08.295Z,92.20
2018-07-25T22:23:36.518Z,93.70
2018-07-25T22:26:04.866Z,93.40
2018-07-25T22:28:33.105Z,94.00
2018-07-25T22:31:01.308Z,93.60
2018-07-25T22:33:29.513Z,93.40
2018-07-25T22:35:57.724Z,94.60
2018-07-25T22:38:25.975Z,94.80
2018-07-25T22:40:54.178Z,94.60
2018-07-25T22:43:22.441Z,94.10
2018-07-25T22:45:50.657Z,95.40
2018-07-25T22:48:18.876Z,94.70
2018-07-25T22:50:47.122Z,94.50
2018-07-25T22:53:15.405Z,94.60
2018-07-25T22:55:43.628Z,94.90
2018-07-25T22:58:11.858Z,95.10
2018-07-25T23:00:40.095Z,95.70
2018-07-25T23:03:08.479Z,95.90
2018-07-25T23:05:36.695Z,95.50
2018-07-25T23:08:04.943Z,94.40
2018-07-25T23:10:33.186Z,93.90
2018-07-25T23:13:01.417Z,93.60
2018-07-25T23:15:29.646Z,93.80
2018-07-25T23:17:57.865Z,94.50
2018-07-25T23:20:26.215Z,94.80
2018-07-25T23:22:58.603Z,94.30
2018-07-25T23:25:27.192Z,94.40
2018-07-25T23:27:56.403Z,94.40
2018-07-25T23:30:25.331Z,93.90
2018-07-25T23:32:53.572Z,94.80
2018-07-25T23:35:21.955Z,94.60
2018-07-25T23:37:50.783Z,94.90
2018-07-25T23:40:19.241Z,94.90
2018-07-25T23:42:47.880Z,95.10
2018-07-25T23:45:16.123Z,94.40
2018-07-25T23:47:44.337Z,93.90
2018-07-25T23:50:12.587Z,92.30
2018-07-25T23:52:40.826Z,91.90
2018-07-25T23:55:09.424Z,92.60
2018-07-25T23:57:37.631Z,92.70
